Ludhiaha, Ludhiana Sahnewal Airport (VILD)

NameLudhiana Sahnewal Airport
CityLudhiaha
CountryIndia
ICAOVILD
IATALUH
Altitude254 m
CoordinatesGoogle Map
Live Air TrafficLiveATC.net
METARVILD 050900Z 29005KT 4000 HZ NSC 30/09 Q1011
2019-11-05 09:00:00 Wind: West (290°) 2.57 m/s - Visibility: 4000 m - Weather: Haze - Temperature: 30 °C - Dew point: 9 °C - Humidity: 27% - Pressure: 1011 hPa

Sorry, no flights used the airport in this database.